Time;durP1;ratioP1;P1;durP2;ratioP2;P2;SDS_P1;SDS_P2;PMS_P1;PMS_P2;Temp;Humidity;BMP_temperature;BMP_pressure;BME280_temperature;BME280_humidity;BME280_pressure;Samples;Min_cycle;Max_cycle;Signal;HPM_P1;HPM_P2
2021/07/31 00:00:29;;;;;;;9.23;6.60;;;;;;;17.88;67.20;99889.05;1716810;81;26559;-76
2021/07/31 00:02:58;;;;;;;12.40;6.60;;;;;;;17.82;67.31;99890.85;1738016;79;25809;-76
2021/07/31 00:05:25;;;;;;;12.23;7.25;;;;;;;17.80;67.55;99893.52;1734095;80;27639;-76
2021/07/31 00:07:52;;;;;;;10.72;7.42;;;;;;;17.78;67.50;99891.59;1687976;80;26603;-76
2021/07/31 00:10:19;;;;;;;16.32;7.97;;;;;;;17.74;67.69;99891.30;1704978;81;26791;-76
2021/07/31 00:12:46;;;;;;;13.28;7.20;;;;;;;17.68;67.75;99882.81;1739074;82;26363;-76
2021/07/31 00:15:13;;;;;;;10.30;6.40;;;;;;;17.63;67.83;99882.21;1718899;81;25923;-76
2021/07/31 00:17:40;;;;;;;14.75;8.20;;;;;;;17.58;67.87;99883.48;1677683;82;27455;-76
2021/07/31 00:20:08;;;;;;;11.48;6.80;;;;;;;17.55;68.07;99885.36;1756230;80;25800;-76
2021/07/31 00:22:35;;;;;;;14.33;7.60;;;;;;;17.51;68.08;99886.89;1748145;81;25736;-76
2021/07/31 00:25:02;;;;;;;15.85;7.10;;;;;;;17.47;68.37;99885.72;1690999;82;26564;-76
2021/07/31 00:27:29;;;;;;;9.83;6.95;;;;;;;17.39;68.29;99888.03;1722761;81;25748;-76
2021/07/31 00:29:56;;;;;;;10.20;6.72;;;;;;;17.32;68.55;99884.70;1672301;81;27899;-76
2021/07/31 00:32:24;;;;;;;12.07;7.15;;;;;;;17.29;68.63;99886.01;1755752;81;25887;-76
2021/07/31 00:34:51;;;;;;;12.90;6.22;;;;;;;17.28;68.65;99876.79;1699844;81;26513;-76
2021/07/31 00:37:18;;;;;;;13.05;7.67;;;;;;;17.25;68.62;99890.80;1721397;81;26226;-76
2021/07/31 00:39:45;;;;;;;10.58;6.85;;;;;;;17.22;68.96;99893.99;1689802;82;26200;-76
2021/07/31 00:42:14;;;;;;;11.38;6.78;;;;;;;17.19;69.03;99893.16;1759016;81;28223;-76
2021/07/31 00:44:41;;;;;;;10.63;7.33;;;;;;;17.16;69.03;99889.57;1703255;81;25860;-76
2021/07/31 00:47:08;;;;;;;9.15;7.05;;;;;;;17.12;69.09;99893.84;1704945;81;25356;-76
2021/07/31 00:49:36;;;;;;;11.93;7.37;;;;;;;17.08;69.30;99894.05;1689857;82;26237;-76
2021/07/31 00:52:06;;;;;;;13.03;6.62;;;;;;;17.02;69.43;99886.39;1756225;79;25713;-76
2021/07/31 00:54:33;;;;;;;14.98;6.78;;;;;;;16.97;69.51;99878.18;1711440;81;28222;-76
2021/07/31 00:57:01;;;;;;;10.30;6.83;;;;;;;16.90;69.69;99879.70;1718528;81;25845;-76
2021/07/31 00:59:30;;;;;;;9.20;6.80;;;;;;;16.89;69.80;99878.03;1702491;81;25757;-76
2021/07/31 01:01:57;;;;;;;9.83;7.22;;;;;;;16.88;69.82;99880.47;1715639;82;26524;-76
2021/07/31 01:04:24;;;;;;;11.53;7.37;;;;;;;16.85;69.95;99886.91;1702300;81;25316;-76
2021/07/31 01:06:51;;;;;;;7.35;6.03;;;;;;;16.85;70.29;99886.36;1715261;82;28134;-76
2021/07/31 01:09:18;;;;;;;15.28;6.72;;;;;;;16.82;70.01;99887.39;1738240;81;25858;-76
2021/07/31 01:11:45;;;;;;;10.80;6.90;;;;;;;16.76;70.06;99889.20;1737469;82;25831;-76
2021/07/31 01:14:13;;;;;;;11.05;6.55;;;;;;;16.73;70.24;99882.09;1714358;81;26280;-76
2021/07/31 01:16:40;;;;;;;9.53;7.03;;;;;;;16.71;70.39;99880.98;1691805;82;25794;-76
2021/07/31 01:19:08;;;;;;;11.48;7.08;;;;;;;16.70;70.55;99882.03;1693118;81;28513;-76
2021/07/31 01:21:46;;;;;;;11.60;7.87;;;;;;;16.69;70.68;99875.53;1758726;81;25819;-76
2021/07/31 01:24:16;;;;;;;9.03;6.60;;;;;;;16.66;70.65;99878.19;1732135;81;25300;-76
2021/07/31 01:26:48;;;;;;;9.10;6.03;;;;;;;16.59;70.70;99877.53;1711207;82;25944;-76
2021/07/31 01:29:17;;;;;;;11.15;7.62;;;;;;;16.54;70.78;99883.36;1694334;81;26519;-76
2021/07/31 01:31:46;;;;;;;11.80;7.67;;;;;;;16.51;70.88;99888.72;1751695;80;28356;-76
2021/07/31 01:34:15;;;;;;;9.50;7.13;;;;;;;16.52;71.09;99885.49;1753599;81;26229;-76
2021/07/31 01:36:42;;;;;;;9.60;7.17;;;;;;;16.55;71.32;99880.41;1677087;82;25944;-76
2021/07/31 01:39:11;;;;;;;11.90;7.55;;;;;;;16.55;71.18;99871.50;1741831;80;26556;-76
2021/07/31 01:41:38;;;;;;;10.35;7.17;;;;;;;16.53;71.17;99868.22;1762370;81;25790;-76
2021/07/31 01:44:05;;;;;;;10.93;7.50;;;;;;;16.51;71.22;99862.24;1689705;82;28243;-76
2021/07/31 01:46:32;;;;;;;10.70;7.12;;;;;;;16.49;71.22;99863.78;1718856;80;25775;-76
2021/07/31 01:49:00;;;;;;;15.43;6.97;;;;;;;16.43;71.17;99859.35;1707235;81;25880;-76
2021/07/31 01:51:28;;;;;;;9.68;7.00;;;;;;;16.39;71.32;99856.02;1773036;80;26593;-76
2021/07/31 01:53:58;;;;;;;11.50;6.97;;;;;;;16.38;71.52;99873.31;1719917;81;26522;-76
2021/07/31 01:56:27;;;;;;;10.17;7.33;;;;;;;16.34;71.58;99866.76;1717037;81;28302;-76
2021/07/31 01:58:55;;;;;;;13.55;7.20;;;;;;;16.31;71.58;99865.34;1726048;82;25783;-76
2021/07/31 02:01:22;;;;;;;10.82;7.42;;;;;;;16.29;71.62;99868.83;1725877;81;25881;-76
2021/07/31 02:03:51;;;;;;;13.72;7.45;;;;;;;16.26;71.78;99869.82;1729243;81;25869;-76
2021/07/31 02:06:25;;;;;;;10.43;7.08;;;;;;;16.18;71.85;99875.92;1708360;80;25858;-76
2021/07/31 02:08:53;;;;;;;12.28;7.00;;;;;;;16.12;71.69;99879.55;1689023;81;28406;-76
2021/07/31 02:11:20;;;;;;;11.43;7.53;;;;;;;16.11;71.79;99870.34;1758381;81;26619;-76
2021/07/31 02:13:47;;;;;;;10.72;7.47;;;;;;;16.10;72.04;99857.36;1727717;81;26551;-76
2021/07/31 02:16:22;;;;;;;11.57;7.05;;;;;;;16.11;72.10;99856.84;1694526;81;25769;-75
2021/07/31 02:18:51;;;;;;;8.48;6.90;;;;;;;16.11;71.98;99856.84;1699396;80;25812;-76
2021/07/31 02:21:20;;;;;;;9.35;7.03;;;;;;;16.07;72.00;99856.52;1710301;81;27322;-76
2021/07/31 02:24:07;;;;;;;9.00;7.15;;;;;;;16.07;72.07;99861.08;1652269;85;25935;-76
2021/07/31 02:26:52;;;;;;;9.53;7.15;;;;;;;16.07;72.23;99859.22;1623186;85;25827;-76
2021/07/31 02:29:21;;;;;;;11.60;7.65;;;;;;;16.07;72.50;99856.52;1666686;81;26451;-76
2021/07/31 02:31:49;;;;;;;8.25;7.25;;;;;;;16.06;72.20;99861.61;1743342;81;25828;-76
2021/07/31 02:34:16;;;;;;;12.13;7.20;;;;;;;16.06;72.35;99866.19;1746624;81;27648;-76
2021/07/31 02:36:44;;;;;;;12.37;6.97;;;;;;;16.03;72.45;99855.87;1722266;81;25848;-76
2021/07/31 02:39:25;;;;;;;10.63;6.78;;;;;;;15.97;72.48;99852.23;1698874;81;26680;-76
2021/07/31 02:41:52;;;;;;;10.55;7.78;;;;;;;15.97;72.59;99852.23;1760692;81;25947;-76
2021/07/31 02:44:20;;;;;;;12.75;8.20;;;;;;;15.96;72.63;99848.43;1707026;81;25810;-76
2021/07/31 02:46:47;;;;;;;12.03;8.23;;;;;;;16.00;73.00;99851.77;1710462;81;28175;-75
2021/07/31 02:49:15;;;;;;;9.75;8.75;;;;;;;16.04;73.19;99861.55;1696148;81;25882;-76
2021/07/31 02:51:42;;;;;;;13.03;8.18;;;;;;;16.04;73.34;99861.55;1777683;80;25848;-76
2021/07/31 02:54:15;;;;;;;10.30;8.10;;;;;;;16.05;73.32;99864.03;1725011;81;25956;-76
2021/07/31 02:56:43;;;;;;;12.45;9.05;;;;;;;16.06;73.30;99854.86;1732286;81;25769;-76
2021/07/31 02:59:11;;;;;;;9.20;7.30;;;;;;;16.09;73.33;99853.56;1715979;80;27397;-76
2021/07/31 03:01:39;;;;;;;11.08;8.10;;;;;;;16.10;73.29;99856.02;1756925;81;26218;-76
2021/07/31 03:04:06;;;;;;;13.93;8.68;;;;;;;16.10;73.23;99851.16;1715470;80;25859;-76
2021/07/31 03:06:33;;;;;;;12.33;7.60;;;;;;;16.07;73.12;99861.08;1687298;81;26421;-76
2021/07/31 03:09:01;;;;;;;13.53;8.93;;;;;;;16.04;73.24;99859.68;1706343;81;25900;-76
2021/07/31 03:11:29;;;;;;;10.23;7.90;;;;;;;16.02;73.21;99856.40;1750727;81;27523;-76
2021/07/31 03:13:57;;;;;;;8.68;7.78;;;;;;;15.98;73.19;99853.89;1718372;82;25771;-77
2021/07/31 03:16:26;;;;;;;11.08;7.87;;;;;;;15.97;73.38;99856.84;1684144;82;25880;-78
2021/07/31 03:18:55;;;;;;;9.50;7.78;;;;;;;15.95;73.51;99857.05;1696652;81;25940;-78
2021/07/31 03:21:22;;;;;;;8.93;7.58;;;;;;;15.92;73.60;99853.50;1717738;82;25968;-78
2021/07/31 03:23:51;;;;;;;10.70;7.87;;;;;;;15.92;73.79;99851.33;1723920;81;28250;-78
2021/07/31 03:26:18;;;;;;;11.85;7.60;;;;;;;15.91;73.84;99848.34;1691096;82;25854;-78
2021/07/31 03:28:47;;;;;;;12.28;7.72;;;;;;;15.90;73.98;99853.45;1696356;81;26600;-78
2021/07/31 03:31:22;;;;;;;12.90;8.18;;;;;;;15.92;74.09;99852.67;1716011;82;26141;-78
2021/07/31 03:33:51;;;;;;;11.73;7.22;;;;;;;15.94;74.16;99855.95;1748879;81;25933;-78
2021/07/31 03:36:18;;;;;;;13.32;7.28;;;;;;;15.94;74.11;99856.78;1704327;82;27569;-78
2021/07/31 03:38:53;;;;;;;9.50;7.92;;;;;;;15.96;74.06;99847.08;1698697;81;25952;-78
2021/07/31 03:41:22;;;;;;;11.55;8.43;;;;;;;15.95;74.03;99841.41;1762484;81;26460;-78
2021/07/31 03:43:50;;;;;;;11.45;8.40;;;;;;;15.93;74.16;99836.22;1722910;81;26498;-78
2021/07/31 03:46:18;;;;;;;15.50;9.20;;;;;;;15.94;74.14;99846.50;1690051;82;25759;-78
2021/07/31 03:48:50;;;;;;;17.40;8.58;;;;;;;15.94;74.37;99851.91;1720506;82;28124;-78
2021/07/31 03:51:17;;;;;;;11.68;8.60;;;;;;;15.98;74.46;99864.70;1726289;82;25912;-78
2021/07/31 03:53:46;;;;;;;11.75;8.58;;;;;;;16.03;74.63;99859.92;1711325;81;25748;-78
2021/07/31 03:56:14;;;;;;;11.60;8.35;;;;;;;16.05;74.61;99853.23;1730618;81;26572;-76
2021/07/31 03:58:43;;;;;;;11.35;8.28;;;;;;;16.10;74.77;99848.46;1762598;81;26545;-76
2021/07/31 04:01:10;;;;;;;12.05;7.90;;;;;;;16.12;74.96;99843.08;1734650;81;27498;-76
2021/07/31 04:03:37;;;;;;;9.78;7.92;;;;;;;16.18;75.02;99848.07;1710618;80;25760;-76
2021/07/31 04:06:05;;;;;;;8.55;7.60;;;;;;;16.26;75.12;99840.09;1734825;81;26062;-76
2021/07/31 04:08:45;;;;;;;12.30;7.33;;;;;;;16.39;75.49;99842.50;1774701;80;25954;-76
2021/07/31 04:11:30;;;;;;;13.53;8.78;;;;;;;16.54;75.47;99848.22;1707581;81;25885;-76
2021/07/31 04:14:15;;;;;;;11.55;8.45;;;;;;;16.57;75.29;99848.54;1718463;81;27578;-76
2021/07/31 04:16:50;;;;;;;9.58;7.20;;;;;;;16.61;75.16;99847.02;1705145;81;25532;-76
2021/07/31 04:19:18;;;;;;;10.18;7.33;;;;;;;16.64;75.21;99851.09;1754828;81;25958;-76
2021/07/31 04:21:46;;;;;;;11.25;7.80;;;;;;;16.67;75.42;99845.20;1726638;81;25784;-76
2021/07/31 04:24:15;;;;;;;8.65;7.70;;;;;;;16.72;75.62;99846.09;1712169;81;25821;-76
2021/07/31 04:26:42;;;;;;;9.68;7.53;;;;;;;16.78;75.74;99846.50;1728767;81;27540;-76
2021/07/31 04:29:09;;;;;;;10.23;7.08;;;;;;;16.82;75.74;99853.05;1761454;81;26623;-76
2021/07/31 04:31:36;;;;;;;11.83;6.80;;;;;;;16.88;76.12;99845.30;1699621;81;26747;-76
2021/07/31 04:34:03;;;;;;;9.85;6.50;;;;;;;16.93;76.05;99833.23;1710836;81;26445;-75
2021/07/31 04:36:32;;;;;;;8.90;7.10;;;;;;;17.00;76.06;99829.53;1726118;81;25841;-76
2021/07/31 04:39:00;;;;;;;15.78;8.20;;;;;;;17.06;76.12;99828.53;1762742;80;27527;-76
2021/07/31 04:41:27;;;;;;;14.13;8.03;;;;;;;17.13;76.13;99838.66;1704419;81;25965;-76
2021/07/31 04:43:54;;;;;;;16.27;7.37;;;;;;;17.20;76.22;99837.41;1710201;81;26046;-76
2021/07/31 04:46:21;;;;;;;9.43;7.40;;;;;;;17.31;75.98;99835.67;1720114;81;26478;-76
2021/07/31 04:48:48;;;;;;;11.40;7.70;;;;;;;17.38;75.91;99833.62;1758751;80;25300;-76
2021/07/31 04:51:16;;;;;;;14.43;7.92;;;;;;;17.47;75.96;99842.40;1701466;81;27552;-76
2021/07/31 04:53:43;;;;;;;11.57;7.83;;;;;;;17.57;76.04;99845.83;1725146;81;26705;-76
2021/07/31 04:56:10;;;;;;;12.35;8.18;;;;;;;17.67;75.99;99859.50;1726509;81;25848;-76
2021/07/31 04:58:37;;;;;;;14.55;7.83;;;;;;;17.77;75.87;99872.37;1758415;81;25865;-76
2021/07/31 05:01:04;;;;;;;15.60;8.05;;;;;;;17.87;75.64;99861.13;1699135;81;25834;-76
2021/07/31 05:03:31;;;;;;;13.05;7.58;;;;;;;17.98;75.72;99857.48;1693185;81;27604;-76
2021/07/31 05:05:58;;;;;;;15.60;7.70;;;;;;;18.09;75.41;99851.08;1731287;81;25946;-76
2021/07/31 05:08:25;;;;;;;10.45;7.78;;;;;;;18.20;75.18;99857.43;1780292;80;25761;-76
2021/07/31 05:10:53;;;;;;;14.55;7.83;;;;;;;18.31;74.98;99861.90;1688252;81;25934;-76
2021/07/31 05:13:20;;;;;;;12.75;7.90;;;;;;;18.40;74.93;99858.49;1711164;82;25848;-76
2021/07/31 05:15:48;;;;;;;13.43;7.97;;;;;;;18.53;75.01;99853.22;1734563;81;27604;-76
2021/07/31 05:18:15;;;;;;;12.53;7.35;;;;;;;18.69;75.19;99852.84;1738659;81;25717;-75
2021/07/31 05:20:45;;;;;;;12.15;6.70;;;;;;;18.82;75.20;99847.78;1704314;80;25834;-76
2021/07/31 05:23:14;;;;;;;12.85;7.08;;;;;;;18.97;74.58;99862.84;1738398;80;25848;-76
2021/07/31 05:25:43;;;;;;;16.75;8.08;;;;;;;19.13;74.79;99863.79;1730647;81;25848;-76
2021/07/31 05:28:12;;;;;;;13.28;6.58;;;;;;;19.28;74.59;99854.92;1762196;80;28193;-76
2021/07/31 05:30:41;;;;;;;9.98;6.15;;;;;;;19.39;74.25;99860.21;1682105;81;25927;-76
2021/07/31 05:33:08;;;;;;;11.05;6.72;;;;;;;19.49;73.75;99856.19;1730295;81;25887;-76
2021/07/31 05:35:36;;;;;;;10.40;6.75;;;;;;;19.62;73.92;99854.90;1693547;82;25782;-76
2021/07/31 05:38:03;;;;;;;12.25;6.35;;;;;;;19.72;73.87;99857.13;1777986;80;25791;-76
2021/07/31 05:40:30;;;;;;;13.58;5.87;;;;;;;19.82;73.20;99857.17;1703913;81;28892;-76
2021/07/31 05:42:57;;;;;;;11.50;6.05;;;;;;;19.95;73.41;99859.97;1695322;81;25796;-76
2021/07/31 05:45:25;;;;;;;10.65;6.60;;;;;;;20.07;73.16;99857.01;1732148;81;25954;-76
2021/07/31 05:47:56;;;;;;;10.80;5.80;;;;;;;20.20;73.20;99853.79;1743382;81;26307;-76
2021/07/31 05:50:21;;;;;;;9.73;5.72;;;;;;;20.33;72.77;99851.42;1695533;80;25347;-76
2021/07/31 05:52:48;;;;;;;13.30;6.10;;;;;;;20.47;72.81;99846.27;1695433;81;27626;-76
2021/07/31 05:55:16;;;;;;;10.03;5.72;;;;;;;20.60;72.20;99838.41;1736427;80;25866;-76
2021/07/31 05:57:43;;;;;;;12.20;5.90;;;;;;;20.72;71.63;99840.31;1760953;80;25815;-76
2021/07/31 06:00:12;;;;;;;14.43;5.97;;;;;;;20.83;71.84;99838.41;1712371;81;26500;-76
2021/07/31 06:02:43;;;;;;;7.60;5.33;;;;;;;20.97;71.16;99843.60;1733903;80;25850;-76
2021/07/31 06:05:11;;;;;;;7.75;5.10;;;;;;;21.11;70.96;99837.89;1738517;81;27440;-76
2021/07/31 06:07:38;;;;;;;12.37;5.85;;;;;;;21.28;70.68;99828.06;1764508;80;25786;-76
2021/07/31 06:10:07;;;;;;;11.83;4.85;;;;;;;21.42;70.96;99834.59;1705964;80;25851;-76
2021/07/31 06:12:34;;;;;;;7.72;5.10;;;;;;;21.58;70.15;99833.45;1711061;80;26440;-76
2021/07/31 06:15:02;;;;;;;8.28;4.87;;;;;;;21.71;69.22;99836.95;1761394;80;25818;-76
2021/07/31 06:17:29;;;;;;;6.42;4.50;;;;;;;21.84;69.08;99834.20;1742628;81;27456;-76
2021/07/31 06:19:56;;;;;;;8.38;4.10;;;;;;;21.97;68.15;99830.88;1675559;80;25860;-76
2021/07/31 06:22:24;;;;;;;9.73;4.42;;;;;;;22.09;68.16;99831.39;1722014;81;25970;-76
2021/07/31 06:24:51;;;;;;;8.90;4.37;;;;;;;22.25;68.42;99828.83;1719296;81;25835;-77
2021/07/31 06:27:18;;;;;;;9.23;3.83;;;;;;;22.38;68.44;99812.38;1741684;82;25447;-76
2021/07/31 06:29:45;;;;;;;7.30;4.08;;;;;;;22.49;66.85;99816.67;1699885;80;27418;-76
2021/07/31 06:32:12;;;;;;;8.93;3.62;;;;;;;22.54;66.43;99815.29;1725744;81;25789;-77
2021/07/31 06:34:39;;;;;;;9.10;4.33;;;;;;;22.56;65.41;99815.25;1712975;80;25838;-77
2021/07/31 06:37:06;;;;;;;8.60;3.85;;;;;;;22.59;65.59;99811.99;1733029;80;25871;-76
2021/07/31 06:39:33;;;;;;;7.62;3.95;;;;;;;22.63;64.82;99815.78;1713082;80;25899;-76
2021/07/31 06:42:00;;;;;;;7.22;4.20;;;;;;;22.70;65.12;99814.91;1701519;80;28384;-76
2021/07/31 06:44:27;;;;;;;8.48;3.80;;;;;;;22.86;65.18;99825.17;1741427;80;25837;-76
2021/07/31 06:46:54;;;;;;;4.25;3.47;;;;;;;23.01;65.05;99825.02;1757767;80;26538;-76
2021/07/31 06:49:21;;;;;;;6.12;2.95;;;;;;;23.15;63.08;99819.71;1688575;82;25815;-76
2021/07/31 06:51:48;;;;;;;4.90;3.65;;;;;;;23.26;63.30;99816.61;1719961;81;25781;-76
2021/07/31 06:54:15;;;;;;;6.28;3.22;;;;;;;23.39;61.85;99816.50;1721940;81;27544;-76
2021/07/31 06:56:42;;;;;;;6.20;3.05;;;;;;;23.50;61.20;99814.72;1767719;80;26053;-76
2021/07/31 06:59:09;;;;;;;7.25;2.70;;;;;;;23.60;60.27;99818.73;1714918;80;26507;-76
2021/07/31 07:01:36;;;;;;;5.12;2.95;;;;;;;23.70;60.13;99812.31;1705612;81;25877;-77
2021/07/31 07:04:03;;;;;;;7.30;3.30;;;;;;;23.82;60.26;99811.91;1725835;81;26154;-77
2021/07/31 07:06:30;;;;;;;6.75;3.37;;;;;;;23.90;59.95;99819.45;1742722;82;27627;-76
2021/07/31 07:08:57;;;;;;;3.95;2.70;;;;;;;23.98;59.94;99816.89;1690786;81;26143;-77
2021/07/31 07:11:24;;;;;;;5.45;3.05;;;;;;;24.06;59.82;99818.20;1693791;82;26457;-77
2021/07/31 07:13:51;;;;;;;6.50;2.98;;;;;;;24.08;59.44;99821.45;1723354;81;26582;-76
2021/07/31 07:16:18;;;;;;;5.10;2.90;;;;;;;24.11;59.50;99820.84;1714209;81;25869;-77
2021/07/31 07:18:45;;;;;;;4.15;2.80;;;;;;;24.15;59.00;99819.97;1736371;81;27459;-76
2021/07/31 07:21:12;;;;;;;7.97;2.95;;;;;;;24.19;58.47;99819.64;1731671;81;25954;-77
2021/07/31 07:23:40;;;;;;;6.92;2.83;;;;;;;24.26;57.77;99815.17;1732726;82;25887;-77
2021/07/31 07:26:12;;;;;;;8.13;3.33;;;;;;;24.33;58.39;99817.81;1703103;82;25873;-76
2021/07/31 07:28:39;;;;;;;4.05;3.05;;;;;;;24.44;58.00;99818.48;1699277;81;25872;-76
2021/07/31 07:31:10;;;;;;;4.17;2.90;;;;;;;24.53;56.48;99811.20;1726537;81;27483;-77
2021/07/31 07:33:38;;;;;;;8.20;3.50;;;;;;;24.61;57.24;99798.22;1747448;80;25797;-77
2021/07/31 07:36:15;;;;;;;6.37;3.25;;;;;;;24.74;56.21;99798.87;1730977;80;25814;-77
2021/07/31 07:38:44;;;;;;;4.37;2.62;;;;;;;24.87;56.25;99800.03;1736575;79;25907;-76
2021/07/31 07:41:13;;;;;;;6.35;2.70;;;;;;;24.98;56.10;99793.23;1730703;80;25998;-77
2021/07/31 07:43:41;;;;;;;7.42;3.17;;;;;;;25.08;55.92;99801.30;1731036;81;27546;-77
2021/07/31 07:46:14;;;;;;;3.95;2.58;;;;;;;25.16;55.34;99795.94;1704042;81;44216;-77
2021/07/31 07:48:43;;;;;;;5.28;3.00;;;;;;;25.24;55.76;99793.86;1702822;81;25834;-77
2021/07/31 07:51:10;;;;;;;6.55;2.67;;;;;;;25.29;55.38;99790.22;1679635;81;26570;-77
2021/07/31 07:53:37;;;;;;;3.35;2.77;;;;;;;25.32;55.76;99786.06;1745166;79;25807;-76
2021/07/31 07:56:04;;;;;;;4.30;2.42;;;;;;;25.35;55.94;99785.44;1744346;80;27425;-77
2021/07/31 07:58:31;;;;;;;4.22;2.87;;;;;;;25.36;55.28;99783.78;1708885;82;25870;-77
2021/07/31 08:00:58;;;;;;;7.15;3.20;;;;;;;25.37;55.63;99786.77;1712587;81;25812;-77
2021/07/31 08:03:25;;;;;;;4.37;3.17;;;;;;;25.38;54.78;99787.59;1745904;80;25819;-77
2021/07/31 08:05:52;;;;;;;6.85;3.27;;;;;;;25.39;54.46;99784.53;1764848;79;26111;-77
2021/07/31 08:08:19;;;;;;;5.50;2.67;;;;;;;25.41;54.25;99780.10;1737108;80;27534;-77
2021/07/31 08:10:47;;;;;;;4.62;2.70;;;;;;;25.43;54.24;99786.95;1714310;79;25899;-77
2021/07/31 08:13:14;;;;;;;6.80;2.92;;;;;;;25.47;54.07;99791.28;1759918;79;25832;-77
2021/07/31 08:15:41;;;;;;;7.42;3.20;;;;;;;25.51;54.49;99791.75;1723831;81;26457;-77
2021/07/31 08:18:08;;;;;;;6.75;3.50;;;;;;;25.55;53.94;99793.31;1698087;81;26624;-76
2021/07/31 08:20:36;;;;;;;5.55;2.87;;;;;;;25.57;53.81;99793.81;1678764;82;27417;-77
2021/07/31 08:23:03;;;;;;;5.00;2.67;;;;;;;25.62;54.15;99797.27;1760533;80;26482;-77
2021/07/31 08:25:30;;;;;;;4.33;3.55;;;;;;;25.71;54.37;99795.44;1729041;81;26563;-77
2021/07/31 08:27:57;;;;;;;3.80;2.90;;;;;;;25.80;53.65;99786.75;1711851;81;25767;-77
2021/07/31 08:30:24;;;;;;;4.12;2.70;;;;;;;25.86;53.02;99781.95;1712276;81;25926;-77
2021/07/31 08:32:51;;;;;;;4.90;3.00;;;;;;;25.90;52.82;99787.90;1758893;80;27513;-77
2021/07/31 08:35:18;;;;;;;4.30;2.83;;;;;;;25.92;52.43;99791.15;1765451;80;25856;-77
2021/07/31 08:37:45;;;;;;;8.35;4.20;;;;;;;25.92;51.40;99787.58;1692276;79;25364;-76
2021/07/31 08:40:13;;;;;;;5.60;4.03;;;;;;;25.93;50.48;99791.97;1692888;81;25885;-77
2021/07/31 08:42:41;;;;;;;7.60;4.10;;;;;;;25.93;51.36;99782.36;1724878;81;26651;-77
2021/07/31 08:45:10;;;;;;;7.03;4.42;;;;;;;25.91;51.72;99782.68;1733626;79;27472;-77
2021/07/31 08:47:38;;;;;;;9.05;5.53;;;;;;;25.94;51.40;99790.28;1659295;82;25790;-77
2021/07/31 08:50:08;;;;;;;18.35;13.65;;;;;;;25.97;52.03;99784.73;1691897;82;25972;-77
2021/07/31 08:52:36;;;;;;;15.03;11.33;;;;;;;26.00;51.89;99788.25;1716335;82;25772;-77
2021/07/31 08:55:04;;;;;;;13.00;8.58;;;;;;;26.06;52.24;99791.69;1713120;82;25851;-77
2021/07/31 08:57:31;;;;;;;5.37;4.08;;;;;;;26.12;51.75;99779.50;1705223;82;27457;-77
2021/07/31 08:59:59;;;;;;;4.62;3.40;;;;;;;26.19;51.14;99778.53;1702976;82;26829;-76
2021/07/31 09:02:31;;;;;;;9.75;4.05;;;;;;;26.23;51.27;99779.53;1748543;81;25776;-77
2021/07/31 09:04:58;;;;;;;10.60;5.12;;;;;;;26.25;50.96;99778.66;1730999;81;25792;-77
2021/07/31 09:07:25;;;;;;;14.03;6.12;;;;;;;26.33;51.31;99776.55;1700543;82;25828;-77
2021/07/31 09:09:52;;;;;;;7.12;4.67;;;;;;;26.39;51.23;99776.11;1676001;82;27466;-77
2021/07/31 09:12:19;;;;;;;5.50;4.03;;;;;;;26.49;50.95;99766.84;1734475;82;25717;-77
2021/07/31 09:14:47;;;;;;;10.82;4.10;;;;;;;26.57;51.08;99766.91;1731661;82;25922;-77
2021/07/31 09:17:26;;;;;;;5.30;4.00;;;;;;;26.66;50.94;99774.66;1659765;83;26506;-77
2021/07/31 09:19:56;;;;;;;7.28;3.65;;;;;;;26.77;50.96;99772.50;1656302;83;26596;-77
2021/07/31 09:22:25;;;;;;;5.97;3.73;;;;;;;26.84;50.58;99768.72;1724106;81;28142;-77
2021/07/31 09:25:09;;;;;;;7.78;4.20;;;;;;;26.90;50.87;99767.48;1734603;81;25874;-77
2021/07/31 09:27:37;;;;;;;4.83;3.80;;;;;;;26.97;50.22;99766.46;1660097;83;26002;-77
2021/07/31 09:30:05;;;;;;;5.58;3.67;;;;;;;27.04;50.66;99766.83;1673093;82;25875;-78
2021/07/31 09:32:42;;;;;;;7.30;3.85;;;;;;;27.14;50.72;99762.98;1718923;82;26468;-77
2021/07/31 09:35:23;;;;;;;5.35;4.17;;;;;;;27.23;51.70;99763.28;1704208;83;28222;-77
2021/07/31 09:37:54;;;;;;;4.60;4.08;;;;;;;27.35;50.48;99755.27;1683286;82;26073;-77
2021/07/31 09:40:28;;;;;;;6.53;4.20;;;;;;;27.47;50.16;99762.38;1697926;82;25788;-77
2021/07/31 09:42:55;;;;;;;6.95;4.33;;;;;;;27.55;50.12;99759.95;1727267;82;25865;-77
2021/07/31 09:45:33;;;;;;;8.20;4.17;;;;;;;27.62;50.12;99754.80;1723682;82;26003;-77
2021/07/31 09:48:06;;;;;;;7.00;3.85;;;;;;;27.71;50.02;99753.72;1660442;83;27443;-77
2021/07/31 09:50:50;;;;;;;6.70;4.20;;;;;;;27.76;49.89;99754.13;1701416;82;25833;-77
2021/07/31 09:53:24;;;;;;;6.47;4.15;;;;;;;27.81;50.04;99755.34;1732357;81;25879;-77
2021/07/31 09:55:56;;;;;;;6.75;4.05;;;;;;;27.83;50.21;99758.58;1697028;82;25915;-77
2021/07/31 09:58:23;;;;;;;;;;;;;;;27.87;49.82;99755.42;1724305;82;25845;-77
2021/07/31 10:00:53;;;;;;;4.17;3.77;;;;;;;27.88;50.24;99755.13;1680554;81;28005;-77
2021/07/31 10:03:20;;;;;;;10.35;3.98;;;;;;;27.85;49.34;99750.81;1708646;82;26140;-77
2021/07/31 10:05:48;;;;;;;6.33;3.67;;;;;;;27.80;49.35;99761.99;1699981;81;26035;-77
2021/07/31 10:08:15;;;;;;;4.50;3.85;;;;;;;27.76;49.42;99763.77;1695467;82;26429;-76
2021/07/31 10:10:42;;;;;;;5.00;3.70;;;;;;;27.72;49.56;99764.95;1687424;81;26554;-76
2021/07/31 10:13:10;;;;;;;7.85;3.80;;;;;;;27.69;50.10;99764.79;1744835;80;27463;-77
2021/07/31 10:15:39;;;;;;;5.12;3.37;;;;;;;27.67;49.69;99767.05;1710902;81;26433;-77
2021/07/31 10:18:11;;;;;;;6.58;3.90;;;;;;;27.60;49.86;99768.89;1714723;82;25906;-77
2021/07/31 10:20:39;;;;;;;4.33;3.30;;;;;;;27.57;50.07;99764.57;1697990;81;25745;-77
2021/07/31 10:23:07;;;;;;;6.22;4.25;;;;;;;27.49;50.33;99764.80;1765246;80;25379;-77
2021/07/31 10:25:34;;;;;;;9.23;4.08;;;;;;;27.41;50.59;99760.91;1729531;81;27652;-77
2021/07/31 10:28:30;;;;;;;7.25;4.05;;;;;;;27.39;51.00;99764.51;1676968;82;25904;-77
2021/07/31 10:30:54;;;;;;;8.68;3.92;;;;;;;27.36;50.94;99761.03;1747879;80;26543;-77
2021/07/31 10:33:45;;;;;;;7.55;4.28;;;;;;;27.35;51.19;99759.98;1722486;81;26215;-77
2021/07/31 10:36:34;;;;;;;;;;;;;;;27.31;51.12;99757.01;1716291;82;25762;-77
2021/07/31 10:39:29;;;;;;;5.90;4.22;;;;;;;27.32;51.33;99752.33;1685826;80;27413;-77
2021/07/31 10:41:59;;;;;;;6.53;4.40;;;;;;;27.34;51.56;99750.89;1765601;80;25933;-77
2021/07/31 10:44:28;;;;;;;8.53;4.42;;;;;;;27.34;51.59;99754.19;1737364;80;25751;-77
2021/07/31 10:47:24;;;;;;;8.28;3.90;;;;;;;27.36;51.57;99756.09;1704411;81;25926;-77
2021/07/31 10:49:51;;;;;;;10.60;4.08;;;;;;;27.39;51.17;99755.47;1719644;80;25726;-77
2021/07/31 10:52:53;;;;;;;8.35;4.40;;;;;;;27.39;51.46;99752.13;1735631;80;26849;-77
2021/07/31 10:55:27;;;;;;;5.87;4.12;;;;;;;27.42;50.69;99749.31;1700602;81;26257;-77
2021/07/31 10:58:17;;;;;;;6.65;4.05;;;;;;;27.44;51.09;99749.25;1689207;81;25980;-77
2021/07/31 11:01:21;;;;;;;6.42;4.55;;;;;;;27.47;50.81;99745.88;1735656;80;26559;-77
2021/07/31 11:03:48;;;;;;;6.33;4.80;;;;;;;27.52;51.04;99743.55;1765612;79;26417;-77
2021/07/31 11:06:16;;;;;;;7.90;5.20;;;;;;;27.52;50.89;99743.55;1704949;81;27176;-77
2021/07/31 11:08:52;;;;;;;6.15;5.22;;;;;;;27.46;50.33;99739.29;1713118;82;25836;-77
2021/07/31 11:11:25;;;;;;;8.13;5.05;;;;;;;27.40;50.39;99738.64;1750583;81;26545;-77
2021/07/31 11:13:54;;;;;;;10.58;5.17;;;;;;;27.39;50.73;99737.00;1716905;81;26589;-77
2021/07/31 11:16:23;;;;;;;9.13;5.30;;;;;;;27.35;50.50;99735.23;1663346;82;25869;-77
2021/07/31 11:18:54;;;;;;;8.73;5.12;;;;;;;27.31;50.70;99736.94;1716457;80;27479;-77
2021/07/31 11:21:28;;;;;;;8.43;4.90;;;;;;;27.31;50.97;99736.94;1755771;81;25964;-77
2021/07/31 11:24:05;;;;;;;7.92;5.22;;;;;;;27.27;51.21;99734.02;1720138;81;25965;-77
2021/07/31 11:26:51;;;;;;;13.50;5.72;;;;;;;27.26;51.40;99733.80;1723045;81;26148;-77
2021/07/31 11:29:26;;;;;;;9.78;5.22;;;;;;;27.27;51.55;99731.27;1724348;81;25906;-77
2021/07/31 11:32:13;;;;;;;6.33;5.28;;;;;;;27.28;52.02;99730.72;1758776;81;28192;-77
2021/07/31 11:34:46;;;;;;;8.58;5.47;;;;;;;27.31;52.49;99736.38;1713305;82;26497;-77
2021/07/31 11:37:16;;;;;;;11.03;5.37;;;;;;;27.37;52.61;99739.27;1695449;80;25768;-77
2021/07/31 11:39:44;;;;;;;9.25;5.80;;;;;;;27.40;52.29;99729.02;1713304;82;25870;-77